sensor_id;sensor_type;location;lat;lon;timestamp;temperature;humidity
66522;SHT31;53349;53.538;8.584;2024-03-02T12:34:38;16.00;54.47
66522;SHT31;53349;53.538;8.584;2024-03-02T12:37:03;15.19;55.62
66522;SHT31;53349;53.538;8.584;2024-03-02T12:39:29;14.85;56.48
66522;SHT31;53349;53.538;8.584;2024-03-02T12:41:54;14.57;57.12
66522;SHT31;53349;53.538;8.584;2024-03-02T12:44:20;14.34;57.45
66522;SHT31;53349;53.538;8.584;2024-03-02T12:46:46;14.37;57.47
66522;SHT31;53349;53.538;8.584;2024-03-02T12:49:14;14.33;57.78
66522;SHT31;53349;53.538;8.584;2024-03-02T12:51:41;14.93;58.14
66522;SHT31;53349;53.538;8.584;2024-03-02T12:54:07;14.67;56.84
66522;SHT31;53349;53.538;8.584;2024-03-02T12:56:33;14.89;56.71
66522;SHT31;53349;53.538;8.584;2024-03-02T12:58:59;14.91;56.55
66522;SHT31;53349;53.538;8.584;2024-03-02T13:01:25;14.55;57.15
66522;SHT31;53349;53.538;8.584;2024-03-02T13:03:52;14.45;57.31
66522;SHT31;53349;53.538;8.584;2024-03-02T13:06:18;14.54;57.28
66522;SHT31;53349;53.538;8.584;2024-03-02T13:08:44;14.49;57.56
66522;SHT31;53349;53.538;8.584;2024-03-02T13:11:10;14.31;58.26
66522;SHT31;53349;53.538;8.584;2024-03-02T13:13:35;14.36;58.31
66522;SHT31;53349;53.538;8.584;2024-03-02T13:16:07;14.38;57.92
66522;SHT31;53349;53.538;8.584;2024-03-02T13:18:33;14.34;57.69
66522;SHT31;53349;53.538;8.584;2024-03-02T13:20:59;14.36;57.55
66522;SHT31;53349;53.538;8.584;2024-03-02T13:23:24;14.33;57.89
66522;SHT31;53349;53.538;8.584;2024-03-02T13:25:49;14.27;57.95
66522;SHT31;53349;53.538;8.584;2024-03-02T13:28:15;14.20;59.31
66522;SHT31;53349;53.538;8.584;2024-03-02T13:30:40;14.27;59.19
66522;SHT31;53349;53.538;8.584;2024-03-02T13:33:05;14.00;58.79
66522;SHT31;53349;53.538;8.584;2024-03-02T13:35:31;13.90;59.81
66522;SHT31;53349;53.538;8.584;2024-03-02T13:37:56;14.03;59.26
66522;SHT31;53349;53.538;8.584;2024-03-02T13:40:21;14.21;58.78
66522;SHT31;53349;53.538;8.584;2024-03-02T13:42:47;14.13;58.67
66522;SHT31;53349;53.538;8.584;2024-03-02T13:45:16;14.00;58.59
66522;SHT31;53349;53.538;8.584;2024-03-02T13:47:41;13.87;58.92
66522;SHT31;53349;53.538;8.584;2024-03-02T13:50:07;13.87;59.52
66522;SHT31;53349;53.538;8.584;2024-03-02T13:52:33;13.73;59.56
66522;SHT31;53349;53.538;8.584;2024-03-02T13:54:58;13.78;59.12
66522;SHT31;53349;53.538;8.584;2024-03-02T13:57:24;13.83;59.32
66522;SHT31;53349;53.538;8.584;2024-03-02T13:59:50;13.63;59.12
66522;SHT31;53349;53.538;8.584;2024-03-02T14:02:15;13.68;59.05
66522;SHT31;53349;53.538;8.584;2024-03-02T14:04:41;13.62;59.15
66522;SHT31;53349;53.538;8.584;2024-03-02T14:07:06;13.59;59.30
66522;SHT31;53349;53.538;8.584;2024-03-02T14:09:32;13.58;59.52
66522;SHT31;53349;53.538;8.584;2024-03-02T14:11:58;13.57;59.78
66522;SHT31;53349;53.538;8.584;2024-03-02T14:14:23;13.57;59.91
66522;SHT31;53349;53.538;8.584;2024-03-02T14:16:49;13.57;59.97
66522;SHT31;53349;53.538;8.584;2024-03-02T14:19:14;13.58;59.80
66522;SHT31;53349;53.538;8.584;2024-03-02T14:21:40;13.55;59.91
66522;SHT31;53349;53.538;8.584;2024-03-02T14:24:05;13.57;59.59
66522;SHT31;53349;53.538;8.584;2024-03-02T14:26:31;13.55;59.69
66522;SHT31;53349;53.538;8.584;2024-03-02T14:28:56;13.55;59.54
66522;SHT31;53349;53.538;8.584;2024-03-02T14:31:21;13.42;59.51
66522;SHT31;53349;53.538;8.584;2024-03-02T14:33:47;13.41;59.67
66522;SHT31;53349;53.538;8.584;2024-03-02T14:36:12;13.45;59.48
66522;SHT31;53349;53.538;8.584;2024-03-02T14:38:38;13.44;59.22
66522;SHT31;53349;53.538;8.584;2024-03-02T14:41:04;13.47;59.18
66522;SHT31;53349;53.538;8.584;2024-03-02T14:43:30;13.51;59.18
66522;SHT31;53349;53.538;8.584;2024-03-02T14:45:55;13.42;59.30
66522;SHT31;53349;53.538;8.584;2024-03-02T14:48:21;13.41;59.31
66522;SHT31;53349;53.538;8.584;2024-03-02T14:50:46;13.44;59.39
66522;SHT31;53349;53.538;8.584;2024-03-02T14:53:12;13.49;59.39
66522;SHT31;53349;53.538;8.584;2024-03-02T14:55:37;13.54;59.46
66522;SHT31;53349;53.538;8.584;2024-03-02T14:58:03;13.54;59.46
66522;SHT31;53349;53.538;8.584;2024-03-02T15:00:28;13.55;59.43
66522;SHT31;53349;53.538;8.584;2024-03-02T15:02:56;13.48;59.59
66522;SHT31;53349;53.538;8.584;2024-03-02T15:05:22;13.49;59.28
66522;SHT31;53349;53.538;8.584;2024-03-02T15:07:47;13.57;59.38
66522;SHT31;53349;53.538;8.584;2024-03-02T15:10:13;13.58;59.28
66522;SHT31;53349;53.538;8.584;2024-03-02T15:12:38;13.52;59.32
66522;SHT31;53349;53.538;8.584;2024-03-02T15:15:04;13.58;59.42
66522;SHT31;53349;53.538;8.584;2024-03-02T15:17:29;13.59;59.42
66522;SHT31;53349;53.538;8.584;2024-03-02T15:19:55;13.57;59.27
66522;SHT31;53349;53.538;8.584;2024-03-02T15:22:20;13.59;59.42
66522;SHT31;53349;53.538;8.584;2024-03-02T15:24:46;13.59;59.52
66522;SHT31;53349;53.538;8.584;2024-03-02T15:27:11;13.62;59.12
66522;SHT31;53349;53.538;8.584;2024-03-02T15:29:36;13.59;58.86
66522;SHT31;53349;53.538;8.584;2024-03-02T15:32:02;13.49;59.20
66522;SHT31;53349;53.538;8.584;2024-03-02T15:34:28;13.44;59.46
66522;SHT31;53349;53.538;8.584;2024-03-02T15:36:53;13.48;59.43
66522;SHT31;53349;53.538;8.584;2024-03-02T15:39:19;13.48;59.46
66522;SHT31;53349;53.538;8.584;2024-03-02T15:41:44;13.49;59.32
66522;SHT31;53349;53.538;8.584;2024-03-02T15:44:10;13.42;59.56
66522;SHT31;53349;53.538;8.584;2024-03-02T15:46:36;13.48;59.57
66522;SHT31;53349;53.538;8.584;2024-03-02T15:49:01;13.45;59.96
66522;SHT31;53349;53.538;8.584;2024-03-02T15:51:27;13.49;60.04
66522;SHT31;53349;53.538;8.584;2024-03-02T15:53:52;13.44;60.40
66522;SHT31;53349;53.538;8.584;2024-03-02T15:56:18;13.41;60.58
66522;SHT31;53349;53.538;8.584;2024-03-02T15:58:44;13.41;60.46
66522;SHT31;53349;53.538;8.584;2024-03-02T16:01:09;13.37;60.54
66522;SHT31;53349;53.538;8.584;2024-03-02T16:03:35;13.35;60.68
66522;SHT31;53349;53.538;8.584;2024-03-02T16:06:00;13.41;60.64
66522;SHT31;53349;53.538;8.584;2024-03-02T16:08:26;13.38;60.84
66522;SHT31;53349;53.538;8.584;2024-03-02T16:10:51;13.32;60.92
66522;SHT31;53349;53.538;8.584;2024-03-02T16:13:16;13.27;61.07
66522;SHT31;53349;53.538;8.584;2024-03-02T16:15:42;13.22;61.15
66522;SHT31;53349;53.538;8.584;2024-03-02T16:18:07;13.20;61.41
66522;SHT31;53349;53.538;8.584;2024-03-02T16:20:33;13.18;61.57
66522;SHT31;53349;53.538;8.584;2024-03-02T16:22:58;13.20;61.68
66522;SHT31;53349;53.538;8.584;2024-03-02T16:25:23;13.14;61.76
66522;SHT31;53349;53.538;8.584;2024-03-02T16:27:49;13.07;62.10
66522;SHT31;53349;53.538;8.584;2024-03-02T16:30:14;13.10;62.18
66522;SHT31;53349;53.538;8.584;2024-03-02T16:32:39;13.07;62.33
66522;SHT31;53349;53.538;8.584;2024-03-02T16:35:05;13.03;62.74
66522;SHT31;53349;53.538;8.584;2024-03-02T16:37:30;12.97;62.87
66522;SHT31;53349;53.538;8.584;2024-03-02T16:39:56;12.91;63.07
66522;SHT31;53349;53.538;8.584;2024-03-02T16:42:21;12.99;63.05
66522;SHT31;53349;53.538;8.584;2024-03-02T16:44:46;12.94;63.07
66522;SHT31;53349;53.538;8.584;2024-03-02T16:47:12;12.90;63.14
66522;SHT31;53349;53.538;8.584;2024-03-02T16:49:37;12.79;63.62
66522;SHT31;53349;53.538;8.584;2024-03-02T16:52:03;12.80;63.49
66522;SHT31;53349;53.538;8.584;2024-03-02T16:54:28;12.75;63.87
66522;SHT31;53349;53.538;8.584;2024-03-02T16:56:54;12.80;63.72
66522;SHT31;53349;53.538;8.584;2024-03-02T16:59:19;12.69;63.91
66522;SHT31;53349;53.538;8.584;2024-03-02T17:01:45;12.70;63.95
66522;SHT31;53349;53.538;8.584;2024-03-02T17:04:10;12.66;64.04
66522;SHT31;53349;53.538;8.584;2024-03-02T17:06:35;12.59;64.08
66522;SHT31;53349;53.538;8.584;2024-03-02T17:09:01;12.64;63.97
66522;SHT31;53349;53.538;8.584;2024-03-02T17:11:26;12.60;63.89
66522;SHT31;53349;53.538;8.584;2024-03-02T17:13:52;12.52;64.31
66522;SHT31;53349;53.538;8.584;2024-03-02T17:16:17;12.52;64.27
66522;SHT31;53349;53.538;8.584;2024-03-02T17:18:43;12.53;64.41
66522;SHT31;53349;53.538;8.584;2024-03-02T17:21:08;12.52;64.36
66522;SHT31;53349;53.538;8.584;2024-03-02T17:23:34;12.50;64.33
66522;SHT31;53349;53.538;8.584;2024-03-02T17:25:59;12.39;64.50
66522;SHT31;53349;53.538;8.584;2024-03-02T17:28:25;12.36;64.67
66522;SHT31;53349;53.538;8.584;2024-03-02T17:30:52;12.35;64.56
66522;SHT31;53349;53.538;8.584;2024-03-02T17:33:17;12.31;64.57
66522;SHT31;53349;53.538;8.584;2024-03-02T17:35:43;12.33;64.68
66522;SHT31;53349;53.538;8.584;2024-03-02T17:38:08;12.22;64.75
66522;SHT31;53349;53.538;8.584;2024-03-02T17:40:34;12.24;64.64
66522;SHT31;53349;53.538;8.584;2024-03-02T17:42:59;12.26;64.47
66522;SHT31;53349;53.538;8.584;2024-03-02T17:45:24;12.25;64.44
66522;SHT31;53349;53.538;8.584;2024-03-02T17:47:50;12.25;64.41
66522;SHT31;53349;53.538;8.584;2024-03-02T17:50:15;12.24;64.40
66522;SHT31;53349;53.538;8.584;2024-03-02T17:52:41;12.25;64.33
66522;SHT31;53349;53.538;8.584;2024-03-02T17:55:06;12.26;64.23
66522;SHT31;53349;53.538;8.584;2024-03-02T17:57:32;12.28;64.23
66522;SHT31;53349;53.538;8.584;2024-03-02T17:59:57;12.12;64.77
66522;SHT31;53349;53.538;8.584;2024-03-02T18:02:22;12.06;64.87
66522;SHT31;53349;53.538;8.584;2024-03-02T18:04:48;12.10;64.85
66522;SHT31;53349;53.538;8.584;2024-03-02T18:07:13;12.02;65.22
66522;SHT31;53349;53.538;8.584;2024-03-02T18:09:42;12.01;65.39
66522;SHT31;53349;53.538;8.584;2024-03-02T18:12:08;11.97;65.51
66522;SHT31;53349;53.538;8.584;2024-03-02T18:14:33;11.88;66.02
66522;SHT31;53349;53.538;8.584;2024-03-02T18:16:58;11.75;66.32
66522;SHT31;53349;53.538;8.584;2024-03-02T18:19:24;11.75;66.55
66522;SHT31;53349;53.538;8.584;2024-03-02T18:21:49;11.66;66.65
66522;SHT31;53349;53.538;8.584;2024-03-02T18:24:15;11.73;66.48
66522;SHT31;53349;53.538;8.584;2024-03-02T18:26:40;11.67;66.32
66522;SHT31;53349;53.538;8.584;2024-03-02T18:29:05;11.64;66.38
66522;SHT31;53349;53.538;8.584;2024-03-02T18:31:31;11.62;66.53
66522;SHT31;53349;53.538;8.584;2024-03-02T18:33:56;11.70;66.45
66522;SHT31;53349;53.538;8.584;2024-03-02T18:36:21;11.57;66.46
66522;SHT31;53349;53.538;8.584;2024-03-02T18:38:47;11.56;66.49
66522;SHT31;53349;53.538;8.584;2024-03-02T18:41:12;11.55;66.63
66522;SHT31;53349;53.538;8.584;2024-03-02T18:43:38;11.50;66.73
66522;SHT31;53349;53.538;8.584;2024-03-02T18:46:06;11.52;66.98
66522;SHT31;53349;53.538;8.584;2024-03-02T18:48:31;11.44;67.12
66522;SHT31;53349;53.538;8.584;2024-03-02T18:50:57;11.37;67.45
66522;SHT31;53349;53.538;8.584;2024-03-02T18:53:22;11.42;67.62
66522;SHT31;53349;53.538;8.584;2024-03-02T18:55:48;11.33;68.06
66522;SHT31;53349;53.538;8.584;2024-03-02T18:58:13;11.16;68.69
66522;SHT31;53349;53.538;8.584;2024-03-02T19:00:38;11.23;68.89
66522;SHT31;53349;53.538;8.584;2024-03-02T19:03:04;11.09;69.32
66522;SHT31;53349;53.538;8.584;2024-03-02T19:05:29;11.04;69.79
66522;SHT31;53349;53.538;8.584;2024-03-02T19:07:54;11.08;69.99
66522;SHT31;53349;53.538;8.584;2024-03-02T19:10:20;11.05;70.17
66522;SHT31;53349;53.538;8.584;2024-03-02T19:12:45;11.09;70.18
66522;SHT31;53349;53.538;8.584;2024-03-02T19:15:11;11.08;70.41
66522;SHT31;53349;53.538;8.584;2024-03-02T19:17:40;10.97;70.69
66522;SHT31;53349;53.538;8.584;2024-03-02T19:20:06;10.98;70.80
66522;SHT31;53349;53.538;8.584;2024-03-02T19:22:31;10.92;71.01
66522;SHT31;53349;53.538;8.584;2024-03-02T19:24:57;10.94;71.13
66522;SHT31;53349;53.538;8.584;2024-03-02T19:27:22;10.92;71.27
66522;SHT31;53349;53.538;8.584;2024-03-02T19:29:47;10.92;71.31
66522;SHT31;53349;53.538;8.584;2024-03-02T19:32:13;10.98;71.18
66522;SHT31;53349;53.538;8.584;2024-03-02T19:34:38;10.85;71.64
66522;SHT31;53349;53.538;8.584;2024-03-02T19:37:03;10.84;71.71
66522;SHT31;53349;53.538;8.584;2024-03-02T19:39:29;10.77;71.96
66522;SHT31;53349;53.538;8.584;2024-03-02T19:41:54;10.81;71.88
66522;SHT31;53349;53.538;8.584;2024-03-02T19:44:20;10.79;71.76
66522;SHT31;53349;53.538;8.584;2024-03-02T19:46:45;10.81;71.74
66522;SHT31;53349;53.538;8.584;2024-03-02T19:49:10;10.75;71.92
66522;SHT31;53349;53.538;8.584;2024-03-02T19:51:36;10.72;72.09
66522;SHT31;53349;53.538;8.584;2024-03-02T19:54:01;10.70;72.32
66522;SHT31;53349;53.538;8.584;2024-03-02T19:56:27;10.60;72.52
66522;SHT31;53349;53.538;8.584;2024-03-02T19:58:52;10.63;72.49
66522;SHT31;53349;53.538;8.584;2024-03-02T20:01:18;10.63;72.44
66522;SHT31;53349;53.538;8.584;2024-03-02T20:03:43;10.61;72.50
66522;SHT31;53349;53.538;8.584;2024-03-02T20:06:09;10.68;72.27
66522;SHT31;53349;53.538;8.584;2024-03-02T20:08:35;10.67;72.30
66522;SHT31;53349;53.538;8.584;2024-03-02T20:11:02;10.60;72.57
66522;SHT31;53349;53.538;8.584;2024-03-02T20:13:27;10.67;72.32
66522;SHT31;53349;53.538;8.584;2024-03-02T20:15:53;10.60;72.30
66522;SHT31;53349;53.538;8.584;2024-03-02T20:18:18;10.63;72.21
66522;SHT31;53349;53.538;8.584;2024-03-02T20:20:43;10.54;72.23
66522;SHT31;53349;53.538;8.584;2024-03-02T20:23:09;10.63;72.08
66522;SHT31;53349;53.538;8.584;2024-03-02T20:25:34;10.51;72.37
66522;SHT31;53349;53.538;8.584;2024-03-02T20:27:59;10.57;72.18
66522;SHT31;53349;53.538;8.584;2024-03-02T20:30:25;10.46;72.53
66522;SHT31;53349;53.538;8.584;2024-03-02T20:32:53;10.50;72.34
66522;SHT31;53349;53.538;8.584;2024-03-02T20:35:18;10.49;72.36
66522;SHT31;53349;53.538;8.584;2024-03-02T20:37:43;10.43;72.63
66522;SHT31;53349;53.538;8.584;2024-03-02T20:40:09;10.40;72.48
66522;SHT31;53349;53.538;8.584;2024-03-02T20:42:35;10.49;72.24
66522;SHT31;53349;53.538;8.584;2024-03-02T20:45:00;10.49;72.23
66522;SHT31;53349;53.538;8.584;2024-03-02T20:47:26;10.49;72.16
66522;SHT31;53349;53.538;8.584;2024-03-02T20:49:51;10.49;72.19
66522;SHT31;53349;53.538;8.584;2024-03-02T20:52:17;10.40;72.46
66522;SHT31;53349;53.538;8.584;2024-03-02T20:54:42;10.40;72.37
66522;SHT31;53349;53.538;8.584;2024-03-02T20:57:08;10.39;72.41
66522;SHT31;53349;53.538;8.584;2024-03-02T20:59:34;10.39;72.58
66522;SHT31;53349;53.538;8.584;2024-03-02T21:02:00;10.39;72.59
66522;SHT31;53349;53.538;8.584;2024-03-02T21:04:26;10.34;72.74
66522;SHT31;53349;53.538;8.584;2024-03-02T21:06:51;10.37;72.69
66522;SHT31;53349;53.538;8.584;2024-03-02T21:09:17;10.37;72.63
66522;SHT31;53349;53.538;8.584;2024-03-02T21:11:42;10.39;72.63
66522;SHT31;53349;53.538;8.584;2024-03-02T21:14:08;10.40;72.64
66522;SHT31;53349;53.538;8.584;2024-03-02T21:16:35;10.33;72.72
66522;SHT31;53349;53.538;8.584;2024-03-02T21:19:01;10.26;73.08
66522;SHT31;53349;53.538;8.584;2024-03-02T21:21:26;10.21;73.30
66522;SHT31;53349;53.538;8.584;2024-03-02T21:23:51;10.29;73.17
66522;SHT31;53349;53.538;8.584;2024-03-02T21:26:17;10.23;73.30
66522;SHT31;53349;53.538;8.584;2024-03-02T21:28:42;10.23;73.30
66522;SHT31;53349;53.538;8.584;2024-03-02T21:31:14;10.21;73.44
66522;SHT31;53349;53.538;8.584;2024-03-02T21:33:39;10.14;73.67
66522;SHT31;53349;53.538;8.584;2024-03-02T21:36:05;10.12;73.88
66522;SHT31;53349;53.538;8.584;2024-03-02T21:38:31;10.16;73.85
66522;SHT31;53349;53.538;8.584;2024-03-02T21:40:56;10.08;74.07
66522;SHT31;53349;53.538;8.584;2024-03-02T21:43:21;10.09;74.29
66522;SHT31;53349;53.538;8.584;2024-03-02T21:45:47;10.10;74.18
66522;SHT31;53349;53.538;8.584;2024-03-02T21:48:13;10.12;74.18
66522;SHT31;53349;53.538;8.584;2024-03-02T21:50:39;10.02;74.44
66522;SHT31;53349;53.538;8.584;2024-03-02T21:53:07;9.95;75.00
66522;SHT31;53349;53.538;8.584;2024-03-02T21:55:32;9.98;74.81
66522;SHT31;53349;53.538;8.584;2024-03-02T21:57:58;9.77;75.42
66522;SHT31;53349;53.538;8.584;2024-03-02T22:00:23;9.86;75.23
66522;SHT31;53349;53.538;8.584;2024-03-02T22:02:49;9.88;75.29
66522;SHT31;53349;53.538;8.584;2024-03-02T22:05:14;9.83;75.28
66522;SHT31;53349;53.538;8.584;2024-03-02T22:07:40;9.74;75.61
66522;SHT31;53349;53.538;8.584;2024-03-02T22:10:06;9.74;75.71
66522;SHT31;53349;53.538;8.584;2024-03-02T22:12:32;9.75;75.64
66522;SHT31;53349;53.538;8.584;2024-03-02T22:14:57;9.75;75.70
66522;SHT31;53349;53.538;8.584;2024-03-02T22:17:23;9.78;75.83
66522;SHT31;53349;53.538;8.584;2024-03-02T22:19:48;9.82;75.79
66522;SHT31;53349;53.538;8.584;2024-03-02T22:22:14;9.71;75.94
66522;SHT31;53349;53.538;8.584;2024-03-02T22:24:40;9.65;76.37
66522;SHT31;53349;53.538;8.584;2024-03-02T22:27:06;9.65;76.06
66522;SHT31;53349;53.538;8.584;2024-03-02T22:29:32;9.58;76.49
66522;SHT31;53349;53.538;8.584;2024-03-02T22:31:57;9.57;76.64
66522;SHT31;53349;53.538;8.584;2024-03-02T22:34:22;9.58;76.57
66522;SHT31;53349;53.538;8.584;2024-03-02T22:36:48;9.55;76.72
66522;SHT31;53349;53.538;8.584;2024-03-02T22:39:13;9.45;77.22
66522;SHT31;53349;53.538;8.584;2024-03-02T22:41:38;9.41;77.32
66522;SHT31;53349;53.538;8.584;2024-03-02T22:44:04;9.47;77.08
66522;SHT31;53349;53.538;8.584;2024-03-02T22:46:29;9.45;77.27
66522;SHT31;53349;53.538;8.584;2024-03-02T22:48:54;9.41;77.53
66522;SHT31;53349;53.538;8.584;2024-03-02T22:51:24;9.35;77.43
66522;SHT31;53349;53.538;8.584;2024-03-02T22:53:49;9.38;77.58
66522;SHT31;53349;53.538;8.584;2024-03-02T22:56:15;9.23;77.79
66522;SHT31;53349;53.538;8.584;2024-03-02T22:58:41;9.33;77.64
66522;SHT31;53349;53.538;8.584;2024-03-02T23:01:06;9.34;77.56
66522;SHT31;53349;53.538;8.584;2024-03-02T23:03:31;9.23;77.89
66522;SHT31;53349;53.538;8.584;2024-03-02T23:05:57;9.21;77.77
66522;SHT31;53349;53.538;8.584;2024-03-02T23:08:22;9.12;78.07
66522;SHT31;53349;53.538;8.584;2024-03-02T23:10:47;9.14;78.20
66522;SHT31;53349;53.538;8.584;2024-03-02T23:13:13;9.17;77.93
66522;SHT31;53349;53.538;8.584;2024-03-02T23:15:38;9.20;77.88
66522;SHT31;53349;53.538;8.584;2024-03-02T23:18:04;9.20;77.86
66522;SHT31;53349;53.538;8.584;2024-03-02T23:20:29;9.04;78.18
66522;SHT31;53349;53.538;8.584;2024-03-02T23:22:55;9.06;78.13
66522;SHT31;53349;53.538;8.584;2024-03-02T23:25:20;9.07;78.20
66522;SHT31;53349;53.538;8.584;2024-03-02T23:27:46;8.94;78.44
66522;SHT31;53349;53.538;8.584;2024-03-02T23:30:11;8.96;78.54
66522;SHT31;53349;53.538;8.584;2024-03-02T23:32:36;9.03;78.07
66522;SHT31;53349;53.538;8.584;2024-03-02T23:35:02;9.06;78.24
66522;SHT31;53349;53.538;8.584;2024-03-02T23:37:28;8.99;78.10
66522;SHT31;53349;53.538;8.584;2024-03-02T23:39:54;8.97;78.45
66522;SHT31;53349;53.538;8.584;2024-03-02T23:42:19;8.92;78.64
66522;SHT31;53349;53.538;8.584;2024-03-02T23:44:45;8.92;78.39
66522;SHT31;53349;53.538;8.584;2024-03-02T23:47:10;8.94;78.42
66522;SHT31;53349;53.538;8.584;2024-03-02T23:49:35;8.90;78.58
66522;SHT31;53349;53.538;8.584;2024-03-02T23:52:01;8.83;78.80
66522;SHT31;53349;53.538;8.584;2024-03-02T23:54:26;8.87;78.72
66522;SHT31;53349;53.538;8.584;2024-03-02T23:56:51;8.73;79.07
66522;SHT31;53349;53.538;8.584;2024-03-02T23:59:17;8.80;78.84
